sensor_id;sensor_type;location;lat;lon;timestamp;pressure;altitude;pressure_sealevel;temperature;humidity
78671;BME280;68277;52.724;6.516;2023-07-20T00:00:26;101393.91;;;15.50;79.50
78671;BME280;68277;52.724;6.516;2023-07-20T00:02:52;101362.34;;;15.36;79.56
78671;BME280;68277;52.724;6.516;2023-07-20T00:05:17;101407.88;;;15.58;79.99
78671;BME280;68277;52.724;6.516;2023-07-20T00:07:50;101399.31;;;15.48;80.85
78671;BME280;68277;52.724;6.516;2023-07-20T00:10:17;101414.34;;;15.51;80.53
78671;BME280;68277;52.724;6.516;2023-07-20T00:12:43;101390.78;;;15.37;85.38
78671;BME280;68277;52.724;6.516;2023-07-20T00:15:13;101443.69;;;15.51;81.50
78671;BME280;68277;52.724;6.516;2023-07-20T00:17:39;101412.28;;;15.31;80.15
78671;BME280;68277;52.724;6.516;2023-07-20T00:20:06;101421.69;;;15.43;80.35
78671;BME280;68277;52.724;6.516;2023-07-20T00:22:32;101418.06;;;15.47;81.52
78671;BME280;68277;52.724;6.516;2023-07-20T00:24:57;101393.59;;;15.33;80.66
78671;BME280;68277;52.724;6.516;2023-07-20T00:27:23;101389.09;;;15.33;81.42
78671;BME280;68277;52.724;6.516;2023-07-20T00:29:54;101424.25;;;15.47;79.78
78671;BME280;68277;52.724;6.516;2023-07-20T00:32:19;101420.94;;;15.39;82.68
78671;BME280;68277;52.724;6.516;2023-07-20T00:34:45;101434.19;;;15.41;82.43
78671;BME280;68277;52.724;6.516;2023-07-20T00:37:10;101381.63;;;15.18;81.74
78671;BME280;68277;52.724;6.516;2023-07-20T00:39:37;101415.66;;;15.38;81.66
78671;BME280;68277;52.724;6.516;2023-07-20T00:42:06;101401.75;;;15.28;85.34
78671;BME280;68277;52.724;6.516;2023-07-20T00:44:31;101424.25;;;15.47;85.48
78671;BME280;68277;52.724;6.516;2023-07-20T00:46:59;101421.63;;;15.46;83.52
78671;BME280;68277;52.724;6.516;2023-07-20T00:49:25;101426.09;;;15.44;84.60
78671;BME280;68277;52.724;6.516;2023-07-20T00:51:50;101425.28;;;15.42;83.59
78671;BME280;68277;52.724;6.516;2023-07-20T00:54:16;101403.72;;;15.22;85.53
78671;BME280;68277;52.724;6.516;2023-07-20T00:56:47;101371.59;;;14.98;83.57
78671;BME280;68277;52.724;6.516;2023-07-20T00:59:17;101386.59;;;15.02;85.84
78671;BME280;68277;52.724;6.516;2023-07-20T01:01:42;101396.97;;;15.12;85.09
78671;BME280;68277;52.724;6.516;2023-07-20T01:04:08;101373.50;;;14.95;89.31
78671;BME280;68277;52.724;6.516;2023-07-20T01:07:05;101349.97;;;14.81;87.04
78671;BME280;68277;52.724;6.516;2023-07-20T01:09:41;101379.81;;;14.92;85.99
78671;BME280;68277;52.724;6.516;2023-07-20T01:12:12;101389.53;;;14.93;85.08
78671;BME280;68277;52.724;6.516;2023-07-20T01:14:40;101427.84;;;15.19;86.03
78671;BME280;68277;52.724;6.516;2023-07-20T01:17:05;101424.13;;;15.23;88.94
78671;BME280;68277;52.724;6.516;2023-07-20T01:19:31;101395.34;;;15.06;85.02
78671;BME280;68277;52.724;6.516;2023-07-20T01:27:44;101429.31;;;15.27;85.64
78671;BME280;68277;52.724;6.516;2023-07-20T01:30:50;101406.91;;;15.06;87.68
78671;BME280;68277;52.724;6.516;2023-07-20T01:33:18;101424.28;;;15.18;84.45
78671;BME280;68277;52.724;6.516;2023-07-20T01:35:46;101425.34;;;15.13;85.66
78671;BME280;68277;52.724;6.516;2023-07-20T01:38:13;101387.06;;;14.87;84.83
78671;BME280;68277;52.724;6.516;2023-07-20T01:40:40;101389.66;;;14.90;87.94
78671;BME280;68277;52.724;6.516;2023-07-20T01:43:06;101403.78;;;14.92;85.48
78671;BME280;68277;52.724;6.516;2023-07-20T01:45:31;101408.19;;;14.93;86.80
78671;BME280;68277;52.724;6.516;2023-07-20T01:47:58;101402.31;;;14.82;87.25
78671;BME280;68277;52.724;6.516;2023-07-20T01:50:23;101427.63;;;14.97;88.84
78671;BME280;68277;52.724;6.516;2023-07-20T01:52:54;101425.13;;;14.92;88.15
78671;BME280;68277;52.724;6.516;2023-07-20T01:55:25;101399.16;;;14.70;86.92
78671;BME280;68277;52.724;6.516;2023-07-20T01:57:52;101402.84;;;14.66;87.53
78671;BME280;68277;52.724;6.516;2023-07-20T02:00:18;101430.81;;;14.80;89.40
78671;BME280;68277;52.724;6.516;2023-07-20T02:02:46;101410.22;;;14.56;86.90
78671;BME280;68277;52.724;6.516;2023-07-20T02:05:12;101420.13;;;14.51;86.71
78671;BME280;68277;52.724;6.516;2023-07-20T02:07:38;101412.41;;;14.44;84.88
78671;BME280;68277;52.724;6.516;2023-07-20T02:10:04;101387.84;;;14.32;89.74
78671;BME280;68277;52.724;6.516;2023-07-20T02:12:29;101408.09;;;14.38;87.28
78671;BME280;68277;52.724;6.516;2023-07-20T02:14:55;101426.53;;;14.46;88.11
78671;BME280;68277;52.724;6.516;2023-07-20T02:17:21;101429.19;;;14.46;87.66
78671;BME280;68277;52.724;6.516;2023-07-20T02:19:50;101391.69;;;14.21;88.24
78671;BME280;68277;52.724;6.516;2023-07-20T02:22:17;101428.59;;;14.36;87.63
78671;BME280;68277;52.724;6.516;2023-07-20T02:24:43;101388.41;;;14.13;87.63
78671;BME280;68277;52.724;6.516;2023-07-20T02:27:09;101399.91;;;14.13;88.14
78671;BME280;68277;52.724;6.516;2023-07-20T02:29:34;101371.91;;;14.00;91.30
78671;BME280;68277;52.724;6.516;2023-07-20T02:32:01;101430.53;;;14.28;88.65
78671;BME280;68277;52.724;6.516;2023-07-20T02:34:27;101399.25;;;14.05;88.72
78671;BME280;68277;52.724;6.516;2023-07-20T02:36:52;101422.94;;;14.14;85.96
78671;BME280;68277;52.724;6.516;2023-07-20T02:39:18;101416.06;;;14.07;85.90
78671;BME280;68277;52.724;6.516;2023-07-20T02:41:43;101391.69;;;13.90;87.31
78671;BME280;68277;52.724;6.516;2023-07-20T02:44:09;101415.34;;;14.01;87.49
78671;BME280;68277;52.724;6.516;2023-07-20T02:46:34;101436.34;;;14.11;86.42
78671;BME280;68277;52.724;6.516;2023-07-20T02:49:00;101421.66;;;13.97;86.88
78671;BME280;68277;52.724;6.516;2023-07-20T02:51:26;101413.84;;;13.91;85.96
78671;BME280;68277;52.724;6.516;2023-07-20T02:53:52;101425.50;;;13.85;86.15
78671;BME280;68277;52.724;6.516;2023-07-20T02:56:17;101442.94;;;13.97;87.31
78671;BME280;68277;52.724;6.516;2023-07-20T02:58:43;101415.09;;;13.78;85.70
78671;BME280;68277;52.724;6.516;2023-07-20T03:01:09;101402.13;;;13.65;87.19
78671;BME280;68277;52.724;6.516;2023-07-20T03:03:36;101453.75;;;13.91;86.38
78671;BME280;68277;52.724;6.516;2023-07-20T03:06:07;101440.66;;;13.83;87.80
78671;BME280;68277;52.724;6.516;2023-07-20T03:08:34;101424.97;;;13.73;88.04
78671;BME280;68277;52.724;6.516;2023-07-20T03:11:01;101410.16;;;13.62;87.48
78671;BME280;68277;52.724;6.516;2023-07-20T03:13:28;101437.47;;;13.69;88.35
78671;BME280;68277;52.724;6.516;2023-07-20T03:15:54;101392.94;;;13.43;87.57
78671;BME280;68277;52.724;6.516;2023-07-20T03:18:21;101420.09;;;13.56;86.47
78671;BME280;68277;52.724;6.516;2023-07-20T03:20:48;101409.66;;;13.48;86.38
78671;BME280;68277;52.724;6.516;2023-07-20T03:23:21;101446.38;;;13.68;86.29
78671;BME280;68277;52.724;6.516;2023-07-20T03:25:47;101433.34;;;13.57;89.79
78671;BME280;68277;52.724;6.516;2023-07-20T03:28:12;101439.53;;;13.58;88.84
78671;BME280;68277;52.724;6.516;2023-07-20T03:30:38;101436.81;;;13.61;88.80
78671;BME280;68277;52.724;6.516;2023-07-20T03:33:04;101400.13;;;13.38;88.00
78671;BME280;68277;52.724;6.516;2023-07-20T03:35:30;101422.06;;;13.48;87.79
78671;BME280;68277;52.724;6.516;2023-07-20T03:37:56;101431.63;;;13.55;88.24
78671;BME280;68277;52.724;6.516;2023-07-20T03:40:22;101431.81;;;13.49;87.99
78671;BME280;68277;52.724;6.516;2023-07-20T03:42:48;101400.31;;;13.31;88.46
78671;BME280;68277;52.724;6.516;2023-07-20T03:45:14;101423.97;;;13.43;88.91
78671;BME280;68277;52.724;6.516;2023-07-20T03:47:40;101438.00;;;13.49;88.77
78671;BME280;68277;52.724;6.516;2023-07-20T03:50:06;101444.94;;;13.55;86.64
78671;BME280;68277;52.724;6.516;2023-07-20T03:52:32;101466.84;;;13.64;91.11
78671;BME280;68277;52.724;6.516;2023-07-20T03:54:57;101431.16;;;13.38;89.10
78671;BME280;68277;52.724;6.516;2023-07-20T03:57:23;101466.97;;;13.60;86.53
78671;BME280;68277;52.724;6.516;2023-07-20T03:59:48;101425.28;;;13.25;85.16
78671;BME280;68277;52.724;6.516;2023-07-20T04:02:14;101412.91;;;13.24;87.58
78671;BME280;68277;52.724;6.516;2023-07-20T04:04:41;101470.41;;;13.65;86.41
78671;BME280;68277;52.724;6.516;2023-07-20T04:07:07;101449.47;;;13.51;87.96
78671;BME280;68277;52.724;6.516;2023-07-20T04:09:33;101428.44;;;13.41;87.94
78671;BME280;68277;52.724;6.516;2023-07-20T04:11:58;101452.00;;;13.56;87.79
78671;BME280;68277;52.724;6.516;2023-07-20T04:14:24;101383.06;;;13.13;87.88
78671;BME280;68277;52.724;6.516;2023-07-20T04:16:49;101458.16;;;13.58;87.02
78671;BME280;68277;52.724;6.516;2023-07-20T04:19:17;101401.31;;;13.28;86.49
78671;BME280;68277;52.724;6.516;2023-07-20T04:21:43;101429.16;;;13.47;88.79
78671;BME280;68277;52.724;6.516;2023-07-20T04:24:09;101446.72;;;13.54;87.86
78671;BME280;68277;52.724;6.516;2023-07-20T04:26:35;101427.50;;;13.43;87.75
78671;BME280;68277;52.724;6.516;2023-07-20T04:29:02;101430.09;;;13.46;88.42
78671;BME280;68277;52.724;6.516;2023-07-20T04:31:34;101430.97;;;13.45;86.33
78671;BME280;68277;52.724;6.516;2023-07-20T04:34:01;101437.06;;;13.50;86.62
78671;BME280;68277;52.724;6.516;2023-07-20T04:36:27;101420.44;;;13.42;87.09
78671;BME280;68277;52.724;6.516;2023-07-20T04:38:53;101450.00;;;13.64;86.64
78671;BME280;68277;52.724;6.516;2023-07-20T04:41:20;101485.75;;;13.89;91.07
78671;BME280;68277;52.724;6.516;2023-07-20T04:43:50;101431.38;;;13.65;86.81
78671;BME280;68277;52.724;6.516;2023-07-20T04:46:25;101469.34;;;14.04;86.88
78671;BME280;68277;52.724;6.516;2023-07-20T04:48:51;101478.66;;;14.54;85.28
78671;BME280;68277;52.724;6.516;2023-07-20T04:51:16;101449.78;;;15.27;82.64
78671;BME280;68277;52.724;6.516;2023-07-20T04:53:47;101424.53;;;15.91;79.94
78671;BME280;68277;52.724;6.516;2023-07-20T04:56:13;101459.03;;;16.46;77.58
78671;BME280;68277;52.724;6.516;2023-07-20T04:58:39;101447.31;;;16.25;77.38
78671;BME280;68277;52.724;6.516;2023-07-20T05:01:04;101454.84;;;16.14;78.25
78671;BME280;68277;52.724;6.516;2023-07-20T05:03:31;101449.22;;;15.97;79.23
78671;BME280;68277;52.724;6.516;2023-07-20T05:05:58;101493.41;;;16.30;80.52
78671;BME280;68277;52.724;6.516;2023-07-20T05:08:23;101447.31;;;16.25;79.50
78671;BME280;68277;52.724;6.516;2023-07-20T05:10:49;101485.53;;;16.52;78.59
78671;BME280;68277;52.724;6.516;2023-07-20T05:13:15;101455.44;;;16.22;79.22
78671;BME280;68277;52.724;6.516;2023-07-20T05:15:41;101468.56;;;16.28;79.44
78671;BME280;68277;52.724;6.516;2023-07-20T05:18:11;101451.28;;;16.14;81.12
78671;BME280;68277;52.724;6.516;2023-07-20T05:20:37;101438.63;;;16.43;81.16
78671;BME280;68277;52.724;6.516;2023-07-20T05:23:02;101484.31;;;17.30;79.90
78671;BME280;68277;52.724;6.516;2023-07-20T05:25:28;101467.03;;;17.82;77.00
78671;BME280;68277;52.724;6.516;2023-07-20T05:27:56;101461.66;;;18.42;73.77
78671;BME280;68277;52.724;6.516;2023-07-20T05:30:22;101446.03;;;18.72;71.64
78671;BME280;68277;52.724;6.516;2023-07-20T05:32:47;101450.97;;;19.19;72.19
78671;BME280;68277;52.724;6.516;2023-07-20T05:35:17;101458.66;;;19.81;70.36
78671;BME280;68277;52.724;6.516;2023-07-20T05:37:44;101465.19;;;20.61;67.26
78671;BME280;68277;52.724;6.516;2023-07-20T05:40:09;101493.16;;;21.53;65.34
78671;BME280;68277;52.724;6.516;2023-07-20T05:42:40;101461.25;;;21.93;62.45
78671;BME280;68277;52.724;6.516;2023-07-20T05:45:06;101454.63;;;22.56;59.85
78671;BME280;68277;52.724;6.516;2023-07-20T05:47:32;101463.09;;;22.50;58.49
78671;BME280;68277;52.724;6.516;2023-07-20T05:49:58;101473.66;;;21.95;61.91
78671;BME280;68277;52.724;6.516;2023-07-20T05:52:23;101457.72;;;21.61;62.15
78671;BME280;68277;52.724;6.516;2023-07-20T05:54:49;101467.66;;;22.64;59.84
78671;BME280;68277;52.724;6.516;2023-07-20T05:57:14;101477.97;;;24.08;54.31
78671;BME280;68277;52.724;6.516;2023-07-20T05:59:40;101470.91;;;24.44;53.75
78671;BME280;68277;52.724;6.516;2023-07-20T06:02:09;101496.84;;;25.48;49.93
78671;BME280;68277;52.724;6.516;2023-07-20T06:04:35;101446.28;;;25.94;46.94
78671;BME280;68277;52.724;6.516;2023-07-20T06:07:00;101446.25;;;24.87;48.14
78671;BME280;68277;52.724;6.516;2023-07-20T06:09:26;101473.88;;;23.21;54.27
78671;BME280;68277;52.724;6.516;2023-07-20T06:11:53;101471.34;;;21.73;56.64
78671;BME280;68277;52.724;6.516;2023-07-20T06:14:18;101446.63;;;20.72;60.55
78671;BME280;68277;52.724;6.516;2023-07-20T06:16:44;101471.19;;;21.14;63.10
78671;BME280;68277;52.724;6.516;2023-07-20T06:19:10;101506.84;;;22.11;61.73
78671;BME280;68277;52.724;6.516;2023-07-20T06:21:38;101458.38;;;23.24;53.07
78671;BME280;68277;52.724;6.516;2023-07-20T06:24:04;101467.31;;;24.57;50.06
78671;BME280;68277;52.724;6.516;2023-07-20T06:26:30;101490.38;;;24.49;52.62
78671;BME280;68277;52.724;6.516;2023-07-20T06:28:56;101493.97;;;24.75;49.69
78671;BME280;68277;52.724;6.516;2023-07-20T06:31:22;101509.41;;;25.36;46.84
78671;BME280;68277;52.724;6.516;2023-07-20T06:33:47;101472.66;;;24.83;48.81
78671;BME280;68277;52.724;6.516;2023-07-20T06:36:13;101473.50;;;23.94;47.93
78671;BME280;68277;52.724;6.516;2023-07-20T06:38:39;101467.59;;;22.65;51.55
78671;BME280;68277;52.724;6.516;2023-07-20T06:41:04;101462.66;;;21.53;55.57
78671;BME280;68277;52.724;6.516;2023-07-20T06:43:30;101474.53;;;20.86;58.26
78671;BME280;68277;52.724;6.516;2023-07-20T06:45:55;101487.50;;;20.78;59.09
78671;BME280;68277;52.724;6.516;2023-07-20T06:48:22;101471.28;;;21.13;58.21
78671;BME280;68277;52.724;6.516;2023-07-20T06:50:47;101482.47;;;21.36;57.84
78671;BME280;68277;52.724;6.516;2023-07-20T06:53:13;101487.88;;;21.36;53.97
78671;BME280;68277;52.724;6.516;2023-07-20T06:55:38;101518.09;;;21.88;54.97
78671;BME280;68277;52.724;6.516;2023-07-20T06:58:04;101484.28;;;21.83;54.65
78671;BME280;68277;52.724;6.516;2023-07-20T07:00:30;101515.13;;;21.77;54.92
78671;BME280;68277;52.724;6.516;2023-07-20T07:02:55;101480.06;;;21.16;56.62
78671;BME280;68277;52.724;6.516;2023-07-20T07:05:21;101513.59;;;20.93;57.28
78671;BME280;68277;52.724;6.516;2023-07-20T07:07:48;101520.78;;;21.41;55.92
78671;BME280;68277;52.724;6.516;2023-07-20T07:10:14;101515.41;;;21.41;54.96
78671;BME280;68277;52.724;6.516;2023-07-20T07:12:39;101517.38;;;21.06;57.37
78671;BME280;68277;52.724;6.516;2023-07-20T07:15:05;101545.38;;;21.51;56.71
78671;BME280;68277;52.724;6.516;2023-07-20T07:17:31;101517.06;;;21.75;55.25
78671;BME280;68277;52.724;6.516;2023-07-20T07:19:58;101509.97;;;22.33;52.90
78671;BME280;68277;52.724;6.516;2023-07-20T07:22:23;101520.31;;;21.50;54.33
78671;BME280;68277;52.724;6.516;2023-07-20T07:24:49;101487.06;;;21.03;56.13
78671;BME280;68277;52.724;6.516;2023-07-20T07:27:15;101545.31;;;20.87;55.51
78671;BME280;68277;52.724;6.516;2023-07-20T07:29:43;101512.09;;;20.38;57.70
78671;BME280;68277;52.724;6.516;2023-07-20T07:32:12;101543.41;;;20.56;58.23
78671;BME280;68277;52.724;6.516;2023-07-20T07:34:38;101504.13;;;20.36;58.16
78671;BME280;68277;52.724;6.516;2023-07-20T07:37:04;101522.78;;;20.39;57.79
78671;BME280;68277;52.724;6.516;2023-07-20T07:39:30;101520.84;;;20.07;58.18
78671;BME280;68277;52.724;6.516;2023-07-20T07:41:56;101514.63;;;19.34;59.91
78671;BME280;68277;52.724;6.516;2023-07-20T07:44:22;101504.19;;;19.09;60.76
78671;BME280;68277;52.724;6.516;2023-07-20T07:46:51;101539.16;;;19.26;61.44
78671;BME280;68277;52.724;6.516;2023-07-20T07:49:17;101507.19;;;19.76;60.05
78671;BME280;68277;52.724;6.516;2023-07-20T07:51:44;101521.00;;;20.21;58.63
78671;BME280;68277;52.724;6.516;2023-07-20T07:54:10;101514.00;;;20.36;58.97
78671;BME280;68277;52.724;6.516;2023-07-20T07:56:36;101501.44;;;20.54;58.96
78671;BME280;68277;52.724;6.516;2023-07-20T07:59:01;101507.13;;;21.91;56.22
78671;BME280;68277;52.724;6.516;2023-07-20T08:01:29;101511.16;;;21.37;56.76
78671;BME280;68277;52.724;6.516;2023-07-20T08:03:55;101519.91;;;20.60;58.33
78671;BME280;68277;52.724;6.516;2023-07-20T08:06:21;101520.19;;;22.42;52.48
78671;BME280;68277;52.724;6.516;2023-07-20T08:08:47;101524.53;;;24.13;48.32
78671;BME280;68277;52.724;6.516;2023-07-20T08:11:12;101544.81;;;24.45;48.25
78671;BME280;68277;52.724;6.516;2023-07-20T08:13:38;101506.31;;;24.54;45.89
78671;BME280;68277;52.724;6.516;2023-07-20T08:16:03;101537.66;;;24.31;46.77
78671;BME280;68277;52.724;6.516;2023-07-20T08:18:29;101535.81;;;22.67;51.49
78671;BME280;68277;52.724;6.516;2023-07-20T08:20:55;101515.25;;;21.44;54.86
78671;BME280;68277;52.724;6.516;2023-07-20T08:23:21;101529.94;;;20.73;56.45
78671;BME280;68277;52.724;6.516;2023-07-20T08:25:47;101541.03;;;20.16;57.78
78671;BME280;68277;52.724;6.516;2023-07-20T08:28:16;101513.03;;;19.67;58.76
78671;BME280;68277;52.724;6.516;2023-07-20T08:30:43;101576.44;;;19.88;58.48
78671;BME280;68277;52.724;6.516;2023-07-20T08:33:10;101561.78;;;19.76;57.34
78671;BME280;68277;52.724;6.516;2023-07-20T08:35:36;101545.34;;;20.37;57.61
78671;BME280;68277;52.724;6.516;2023-07-20T08:38:02;101512.84;;;20.74;54.98
78671;BME280;68277;52.724;6.516;2023-07-20T08:40:31;101543.75;;;20.83;55.84
78671;BME280;68277;52.724;6.516;2023-07-20T08:42:58;101564.00;;;21.71;55.41
78671;BME280;68277;52.724;6.516;2023-07-20T08:45:27;101526.50;;;21.98;52.76
78671;BME280;68277;52.724;6.516;2023-07-20T08:47:56;101528.44;;;22.55;53.00
78671;BME280;68277;52.724;6.516;2023-07-20T08:50:25;101548.09;;;22.87;51.35
78671;BME280;68277;52.724;6.516;2023-07-20T08:52:52;101538.06;;;22.59;51.00
78671;BME280;68277;52.724;6.516;2023-07-20T08:55:20;101494.28;;;22.40;52.06
78671;BME280;68277;52.724;6.516;2023-07-20T08:57:46;101506.13;;;22.81;52.42
78671;BME280;68277;52.724;6.516;2023-07-20T09:00:14;101543.34;;;23.47;47.38
78671;BME280;68277;52.724;6.516;2023-07-20T09:02:41;101542.94;;;22.82;51.52
78671;BME280;68277;52.724;6.516;2023-07-20T09:05:08;101525.91;;;22.08;53.36
78671;BME280;68277;52.724;6.516;2023-07-20T09:07:35;101553.53;;;22.12;54.12
78671;BME280;68277;52.724;6.516;2023-07-20T09:10:01;101508.69;;;21.79;53.62
78671;BME280;68277;52.724;6.516;2023-07-20T09:12:32;101521.50;;;21.92;53.07
78671;BME280;68277;52.724;6.516;2023-07-20T09:14:58;101530.41;;;22.08;52.77
78671;BME280;68277;52.724;6.516;2023-07-20T09:17:25;101557.16;;;22.26;52.00
78671;BME280;68277;52.724;6.516;2023-07-20T09:19:51;101560.59;;;23.16;51.35
78671;BME280;68277;52.724;6.516;2023-07-20T09:22:16;101534.78;;;22.54;51.48
78671;BME280;68277;52.724;6.516;2023-07-20T09:24:43;101532.59;;;22.01;52.20
78671;BME280;68277;52.724;6.516;2023-07-20T09:27:09;101546.41;;;21.79;51.48
78671;BME280;68277;52.724;6.516;2023-07-20T09:29:47;101539.38;;;21.15;52.72
78671;BME280;68277;52.724;6.516;2023-07-20T09:32:18;101559.31;;;21.59;52.66
78671;BME280;68277;52.724;6.516;2023-07-20T09:34:44;101534.53;;;21.68;51.11
78671;BME280;68277;52.724;6.516;2023-07-20T09:37:10;101521.28;;;22.54;50.05
78671;BME280;68277;52.724;6.516;2023-07-20T09:39:43;101515.69;;;23.15;44.16
78671;BME280;68277;52.724;6.516;2023-07-20T09:42:11;101509.19;;;23.03;48.69
78671;BME280;68277;52.724;6.516;2023-07-20T09:44:37;101522.50;;;22.92;48.77
78671;BME280;68277;52.724;6.516;2023-07-20T09:47:03;101512.69;;;23.05;49.90
78671;BME280;68277;52.724;6.516;2023-07-20T09:49:29;101504.59;;;22.77;49.34
78671;BME280;68277;52.724;6.516;2023-07-20T09:51:55;101550.13;;;22.54;50.82
78671;BME280;68277;52.724;6.516;2023-07-20T09:54:23;101513.69;;;21.87;52.17
78671;BME280;68277;52.724;6.516;2023-07-20T09:56:50;101487.97;;;21.19;53.02
78671;BME280;68277;52.724;6.516;2023-07-20T09:59:16;101567.31;;;21.12;53.92
78671;BME280;68277;52.724;6.516;2023-07-20T10:01:43;101577.91;;;20.65;54.83
78671;BME280;68277;52.724;6.516;2023-07-20T10:04:11;101574.06;;;20.18;57.91
78671;BME280;68277;52.724;6.516;2023-07-20T10:06:42;101608.66;;;19.52;62.10
78671;BME280;68277;52.724;6.516;2023-07-20T10:09:10;101593.84;;;18.85;63.73
78671;BME280;68277;52.724;6.516;2023-07-20T10:11:43;101585.34;;;18.55;65.19
78671;BME280;68277;52.724;6.516;2023-07-20T10:14:12;101571.88;;;18.35;63.27
78671;BME280;68277;52.724;6.516;2023-07-20T10:16:45;101601.91;;;18.43;67.37
78671;BME280;68277;52.724;6.516;2023-07-20T10:19:19;101571.09;;;18.11;65.41
78671;BME280;68277;52.724;6.516;2023-07-20T10:21:56;101596.16;;;18.10;69.88
78671;BME280;68277;52.724;6.516;2023-07-20T10:24:22;101594.41;;;18.09;75.78
78671;BME280;68277;52.724;6.516;2023-07-20T10:26:48;101600.91;;;18.04;71.02
78671;BME280;68277;52.724;6.516;2023-07-20T10:29:14;101562.03;;;17.94;76.87
78671;BME280;68277;52.724;6.516;2023-07-20T10:31:40;101575.63;;;18.11;71.28
78671;BME280;68277;52.724;6.516;2023-07-20T10:34:06;101551.91;;;18.22;71.04
78671;BME280;68277;52.724;6.516;2023-07-20T10:36:32;101516.09;;;18.24;67.82
78671;BME280;68277;52.724;6.516;2023-07-20T10:38:58;101575.00;;;18.66;68.64
78671;BME280;68277;52.724;6.516;2023-07-20T10:41:34;101527.88;;;18.40;70.72
78671;BME280;68277;52.724;6.516;2023-07-20T10:44:02;101575.81;;;18.88;69.28
78671;BME280;68277;52.724;6.516;2023-07-20T10:49:08;101574.56;;;19.34;67.57
78671;BME280;68277;52.724;6.516;2023-07-20T10:51:47;101570.59;;;19.80;74.14
78671;BME280;68277;52.724;6.516;2023-07-20T10:56:42;101572.97;;;19.86;68.59
78671;BME280;68277;52.724;6.516;2023-07-20T11:01:50;101555.13;;;19.48;67.88
78671;BME280;68277;52.724;6.516;2023-07-20T11:04:40;101575.50;;;19.33;69.58
78671;BME280;68277;52.724;6.516;2023-07-20T11:07:08;101561.13;;;19.16;69.65
78671;BME280;68277;52.724;6.516;2023-07-20T11:09:37;101529.34;;;19.06;70.31
78671;BME280;68277;52.724;6.516;2023-07-20T11:12:11;101546.28;;;19.46;69.50
78671;BME280;68277;52.724;6.516;2023-07-20T11:14:41;101533.66;;;19.48;69.10
78671;BME280;68277;52.724;6.516;2023-07-20T11:17:14;101557.66;;;19.69;70.00
78671;BME280;68277;52.724;6.516;2023-07-20T11:19:41;101539.19;;;19.63;68.15
78671;BME280;68277;52.724;6.516;2023-07-20T11:22:08;101539.66;;;19.71;67.30
78671;BME280;68277;52.724;6.516;2023-07-20T11:24:34;101536.47;;;19.82;67.70
78671;BME280;68277;52.724;6.516;2023-07-20T11:27:03;101520.19;;;19.85;69.26
78671;BME280;68277;52.724;6.516;2023-07-20T11:29:29;101524.00;;;19.98;67.41
78671;BME280;68277;52.724;6.516;2023-07-20T11:31:56;101528.81;;;19.92;66.19
78671;BME280;68277;52.724;6.516;2023-07-20T11:34:21;101561.94;;;20.09;64.96
78671;BME280;68277;52.724;6.516;2023-07-20T11:36:49;101522.34;;;20.13;65.06
78671;BME280;68277;52.724;6.516;2023-07-20T11:39:16;101514.28;;;20.64;63.37
78671;BME280;68277;52.724;6.516;2023-07-20T11:41:55;101546.44;;;21.33;61.12
78671;BME280;68277;52.724;6.516;2023-07-20T11:44:23;101551.44;;;21.39;61.93
78671;BME280;68277;52.724;6.516;2023-07-20T11:47:07;101518.72;;;20.98;58.80
78671;BME280;68277;52.724;6.516;2023-07-20T11:49:41;101547.97;;;21.04;61.09
78671;BME280;68277;52.724;6.516;2023-07-20T11:52:08;101515.19;;;20.80;61.06
78671;BME280;68277;52.724;6.516;2023-07-20T11:54:35;101551.25;;;21.10;60.61
78671;BME280;68277;52.724;6.516;2023-07-20T11:57:03;101502.88;;;21.09;61.41
78671;BME280;68277;52.724;6.516;2023-07-20T11:59:30;101505.41;;;21.12;60.55
78671;BME280;68277;52.724;6.516;2023-07-20T12:02:06;101499.34;;;21.24;62.50
78671;BME280;68277;52.724;6.516;2023-07-20T12:04:31;101526.84;;;21.29;60.53
78671;BME280;68277;52.724;6.516;2023-07-20T12:06:57;101540.06;;;21.18;60.57
78671;BME280;68277;52.724;6.516;2023-07-20T12:09:23;101509.00;;;20.63;60.26
78671;BME280;68277;52.724;6.516;2023-07-20T12:11:49;101495.97;;;20.55;61.17
78671;BME280;68277;52.724;6.516;2023-07-20T12:14:16;101521.97;;;20.72;60.42
78671;BME280;68277;52.724;6.516;2023-07-20T12:16:41;101497.59;;;20.75;60.54
78671;BME280;68277;52.724;6.516;2023-07-20T12:21:37;101511.53;;;20.98;58.05
78671;BME280;68277;52.724;6.516;2023-07-20T12:24:04;101453.81;;;20.56;60.22
78671;BME280;68277;52.724;6.516;2023-07-20T12:26:31;101516.44;;;20.90;59.89
78671;BME280;68277;52.724;6.516;2023-07-20T12:29:00;101476.34;;;20.86;59.80
78671;BME280;68277;52.724;6.516;2023-07-20T12:31:26;101489.53;;;20.75;58.99
78671;BME280;68277;52.724;6.516;2023-07-20T12:33:52;101474.19;;;20.60;58.49
78671;BME280;68277;52.724;6.516;2023-07-20T12:36:21;101529.38;;;20.84;57.59
78671;BME280;68277;52.724;6.516;2023-07-20T12:38:47;101480.69;;;20.88;57.80
78671;BME280;68277;52.724;6.516;2023-07-20T12:41:13;101524.38;;;21.57;57.25
78671;BME280;68277;52.724;6.516;2023-07-20T12:43:43;101516.78;;;21.48;56.84
78671;BME280;68277;52.724;6.516;2023-07-20T12:46:10;101490.56;;;21.05;56.30
78671;BME280;68277;52.724;6.516;2023-07-20T12:48:37;101495.53;;;21.13;57.42
78671;BME280;68277;52.724;6.516;2023-07-20T12:51:05;101469.16;;;20.86;57.05
78671;BME280;68277;52.724;6.516;2023-07-20T12:53:31;101508.13;;;20.95;56.93
78671;BME280;68277;52.724;6.516;2023-07-20T12:55:58;101512.31;;;20.68;58.26
78671;BME280;68277;52.724;6.516;2023-07-20T12:58:23;101518.19;;;20.41;58.37
78671;BME280;68277;52.724;6.516;2023-07-20T13:00:49;101507.09;;;20.13;58.80
78671;BME280;68277;52.724;6.516;2023-07-20T13:03:15;101499.81;;;19.98;59.58
78671;BME280;68277;52.724;6.516;2023-07-20T13:05:41;101515.00;;;19.99;60.20